sensor_id;sensor_type;location;lat;lon;timestamp;pressure;altitude;pressure_sealevel;temperature;humidity
72061;BME280;59925;52.136;5.420;2023-02-24T00:01:19;101850.88;;;0.94;94.02
72061;BME280;59925;52.136;5.420;2023-02-24T00:03:52;101839.31;;;0.95;94.01
72061;BME280;59925;52.136;5.420;2023-02-24T00:06:22;101842.41;;;0.98;93.92
72061;BME280;59925;52.136;5.420;2023-02-24T00:08:49;101842.22;;;1.00;94.43
72061;BME280;59925;52.136;5.420;2023-02-24T00:11:16;101837.44;;;1.03;93.99
72061;BME280;59925;52.136;5.420;2023-02-24T00:13:47;101836.03;;;1.07;93.99
72061;BME280;59925;52.136;5.420;2023-02-24T00:16:15;101825.69;;;1.06;94.01
72061;BME280;59925;52.136;5.420;2023-02-24T00:18:43;101821.84;;;1.09;94.11
72061;BME280;59925;52.136;5.420;2023-02-24T00:21:13;101824.47;;;1.09;93.77
72061;BME280;59925;52.136;5.420;2023-02-24T00:23:42;101821.84;;;1.09;93.72
72061;BME280;59925;52.136;5.420;2023-02-24T00:26:11;101812.66;;;1.04;93.69
72061;BME280;59925;52.136;5.420;2023-02-24T00:28:38;101802.91;;;1.05;93.64
72061;BME280;59925;52.136;5.420;2023-02-24T00:31:08;101802.91;;;1.05;93.61
72061;BME280;59925;52.136;5.420;2023-02-24T00:33:41;101805.09;;;1.01;93.57
72061;BME280;59925;52.136;5.420;2023-02-24T00:36:13;101800.81;;;1.00;93.29
72061;BME280;59925;52.136;5.420;2023-02-24T00:38:41;101812.56;;;0.98;93.21
72061;BME280;59925;52.136;5.420;2023-02-24T00:41:12;101807.81;;;0.93;93.28
72061;BME280;59925;52.136;5.420;2023-02-24T00:43:41;101796.63;;;0.91;93.39
72061;BME280;59925;52.136;5.420;2023-02-24T00:46:13;101802.25;;;0.88;92.94
72061;BME280;59925;52.136;5.420;2023-02-24T00:48:43;101797.34;;;0.85;93.17
72061;BME280;59925;52.136;5.420;2023-02-24T00:51:17;101793.25;;;0.82;92.97
72061;BME280;59925;52.136;5.420;2023-02-24T00:53:52;101780.59;;;0.78;92.98
72061;BME280;59925;52.136;5.420;2023-02-24T00:56:25;101785.38;;;0.74;92.79
72061;BME280;59925;52.136;5.420;2023-02-24T00:58:53;101777.38;;;0.67;92.61
72061;BME280;59925;52.136;5.420;2023-02-24T01:01:23;101783.03;;;0.64;92.69
72061;BME280;59925;52.136;5.420;2023-02-24T01:03:51;101777.09;;;0.62;92.89
72061;BME280;59925;52.136;5.420;2023-02-24T01:06:22;101776.16;;;0.55;93.04
72061;BME280;59925;52.136;5.420;2023-02-24T01:08:50;101768.63;;;0.52;92.54
72061;BME280;59925;52.136;5.420;2023-02-24T01:11:19;101760.44;;;0.47;92.94
72061;BME280;59925;52.136;5.420;2023-02-24T01:14:10;101759.78;;;0.44;92.96
72061;BME280;59925;52.136;5.420;2023-02-24T01:16:37;101752.41;;;0.40;92.91
72061;BME280;59925;52.136;5.420;2023-02-24T01:19:03;101750.75;;;0.39;93.02
72061;BME280;59925;52.136;5.420;2023-02-24T01:21:30;101738.13;;;0.34;93.05
72061;BME280;59925;52.136;5.420;2023-02-24T01:23:57;101739.09;;;0.33;93.13
72061;BME280;59925;52.136;5.420;2023-02-24T01:26:23;101731.91;;;0.27;93.36
72061;BME280;59925;52.136;5.420;2023-02-24T01:28:53;101743.63;;;0.24;93.24
72061;BME280;59925;52.136;5.420;2023-02-24T01:31:21;101732.97;;;0.18;93.10
72061;BME280;59925;52.136;5.420;2023-02-24T01:33:49;101725.25;;;0.16;93.01
72061;BME280;59925;52.136;5.420;2023-02-24T01:36:18;101714.75;;;0.08;93.16
72061;BME280;59925;52.136;5.420;2023-02-24T01:38:45;101706.28;;;-0.03;92.95
72061;BME280;59925;52.136;5.420;2023-02-24T01:41:14;101705.13;;;0.00;93.27
72061;BME280;59925;52.136;5.420;2023-02-24T01:46:41;101697.22;;;0.00;93.59
72061;BME280;59925;52.136;5.420;2023-02-24T01:49:32;101692.94;;;-0.01;93.35
72061;BME280;59925;52.136;5.420;2023-02-24T01:52:08;101683.53;;;-0.04;93.43
72061;BME280;59925;52.136;5.420;2023-02-24T01:54:47;101680.25;;;-0.06;93.41
72061;BME280;59925;52.136;5.420;2023-02-24T01:57:17;101674.53;;;-0.09;93.17
72061;BME280;59925;52.136;5.420;2023-02-24T01:59:47;101671.25;;;-0.11;93.24
72061;BME280;59925;52.136;5.420;2023-02-24T02:02:16;101674.25;;;-0.14;93.14
72061;BME280;59925;52.136;5.420;2023-02-24T02:04:54;101660.59;;;-0.18;93.37
72061;BME280;59925;52.136;5.420;2023-02-24T02:07:26;101669.97;;;-0.16;93.09
72061;BME280;59925;52.136;5.420;2023-02-24T02:09:54;101660.25;;;-0.15;93.23
72061;BME280;59925;52.136;5.420;2023-02-24T02:12:26;101663.53;;;-0.13;93.35
72061;BME280;59925;52.136;5.420;2023-02-24T02:14:56;101660.69;;;-0.11;93.35
72061;BME280;59925;52.136;5.420;2023-02-24T02:17:29;101664.00;;;-0.09;93.50
72061;BME280;59925;52.136;5.420;2023-02-24T02:29:11;101638.28;;;-0.07;93.70
72061;BME280;59925;52.136;5.420;2023-02-24T02:35:03;101628.34;;;-0.20;93.50
72061;BME280;59925;52.136;5.420;2023-02-24T02:40:25;101618.84;;;-0.29;93.48
72061;BME280;59925;52.136;5.420;2023-02-24T02:43:02;101616.75;;;-0.34;93.43
72061;BME280;59925;52.136;5.420;2023-02-24T02:45:39;101613.66;;;-0.38;93.22
72061;BME280;59925;52.136;5.420;2023-02-24T02:48:17;101603.28;;;-0.39;93.61
72061;BME280;59925;52.136;5.420;2023-02-24T02:51:06;101604.91;;;-0.38;93.50
72061;BME280;59925;52.136;5.420;2023-02-24T02:56:17;101600.91;;;-0.49;93.17
72061;BME280;59925;52.136;5.420;2023-02-24T02:58:48;101596.78;;;-0.52;93.24
72061;BME280;59925;52.136;5.420;2023-02-24T03:01:20;101600.41;;;-0.53;93.13
72061;BME280;59925;52.136;5.420;2023-02-24T03:03:54;101598.81;;;-0.54;93.40
72061;BME280;59925;52.136;5.420;2023-02-24T03:06:30;101592.72;;;-0.54;93.18
72061;BME280;59925;52.136;5.420;2023-02-24T03:09:06;101585.81;;;-0.55;93.13
72061;BME280;59925;52.136;5.420;2023-02-24T03:11:38;101574.28;;;-0.54;93.46
72061;BME280;59925;52.136;5.420;2023-02-24T03:14:05;101576.09;;;-0.55;93.25
72061;BME280;59925;52.136;5.420;2023-02-24T03:16:33;101578.53;;;-0.53;93.35
72061;BME280;59925;52.136;5.420;2023-02-24T03:19:03;101562.94;;;-0.55;93.19
72061;BME280;59925;52.136;5.420;2023-02-24T03:21:38;101562.94;;;-0.55;93.32
72061;BME280;59925;52.136;5.420;2023-02-24T03:24:06;101565.56;;;-0.55;93.55
72061;BME280;59925;52.136;5.420;2023-02-24T03:26:51;101552.19;;;-0.53;93.15
72061;BME280;59925;52.136;5.420;2023-02-24T03:29:29;101551.22;;;-0.52;93.37
72061;BME280;59925;52.136;5.420;2023-02-24T03:37:05;101544.22;;;-0.45;93.52
72061;BME280;59925;52.136;5.420;2023-02-24T03:39:31;101540.44;;;-0.42;93.88
72061;BME280;59925;52.136;5.420;2023-02-24T03:42:09;101543.72;;;-0.40;93.56
72061;BME280;59925;52.136;5.420;2023-02-24T03:44:37;101538.91;;;-0.37;94.03
72061;BME280;59925;52.136;5.420;2023-02-24T03:47:03;101537.72;;;-0.34;93.88
72061;BME280;59925;52.136;5.420;2023-02-24T03:49:30;101533.88;;;-0.32;93.45
72061;BME280;59925;52.136;5.420;2023-02-24T03:52:19;101537.63;;;-0.26;93.60
72061;BME280;59925;52.136;5.420;2023-02-24T04:00:34;101528.09;;;-0.12;93.92
72061;BME280;59925;52.136;5.420;2023-02-24T04:03:20;101524.47;;;-0.11;93.66
72061;BME280;59925;52.136;5.420;2023-02-24T04:06:07;101519.66;;;-0.07;93.52
72061;BME280;59925;52.136;5.420;2023-02-24T04:08:47;101520.94;;;-0.03;93.52
72061;BME280;59925;52.136;5.420;2023-02-24T04:11:28;101522.38;;;-0.01;93.72
72061;BME280;59925;52.136;5.420;2023-02-24T04:16:56;101514.56;;;0.06;93.45
72061;BME280;59925;52.136;5.420;2023-02-24T04:19:28;101507.94;;;0.10;93.55
72061;BME280;59925;52.136;5.420;2023-02-24T04:21:58;101502.47;;;0.12;93.79
72061;BME280;59925;52.136;5.420;2023-02-24T04:24:28;101500.47;;;0.14;93.42
72061;BME280;59925;52.136;5.420;2023-02-24T04:26:57;101499.47;;;0.15;93.34
72061;BME280;59925;52.136;5.420;2023-02-24T04:29:27;101488.56;;;0.18;93.23
72061;BME280;59925;52.136;5.420;2023-02-24T04:32:08;101485.72;;;0.20;93.47
72061;BME280;59925;52.136;5.420;2023-02-24T04:34:38;101474.19;;;0.21;93.38
72061;BME280;59925;52.136;5.420;2023-02-24T04:37:06;101467.72;;;0.23;93.35
72061;BME280;59925;52.136;5.420;2023-02-24T04:39:33;101446.44;;;0.25;93.37
72061;BME280;59925;52.136;5.420;2023-02-24T04:42:06;101444.25;;;0.28;93.58
72061;BME280;59925;52.136;5.420;2023-02-24T04:44:33;101454.22;;;0.33;93.45
72061;BME280;59925;52.136;5.420;2023-02-24T04:47:00;101448.59;;;0.36;93.19
72061;BME280;59925;52.136;5.420;2023-02-24T04:49:26;101444.75;;;0.39;92.96
72061;BME280;59925;52.136;5.420;2023-02-24T04:51:53;101441.13;;;0.40;93.18
72061;BME280;59925;52.136;5.420;2023-02-24T04:54:20;101444.38;;;0.42;93.24
72061;BME280;59925;52.136;5.420;2023-02-24T04:56:48;101446.03;;;0.43;93.10
72061;BME280;59925;52.136;5.420;2023-02-24T04:59:17;101439.13;;;0.42;92.91
72061;BME280;59925;52.136;5.420;2023-02-24T05:01:44;101446.03;;;0.43;92.61
72061;BME280;59925;52.136;5.420;2023-02-24T05:04:12;101439.75;;;0.44;92.91
72061;BME280;59925;52.136;5.420;2023-02-24T05:06:40;101425.72;;;0.43;92.73
72061;BME280;59925;52.136;5.420;2023-02-24T05:09:15;101427.78;;;0.48;92.62
72061;BME280;59925;52.136;5.420;2023-02-24T05:11:47;101416.88;;;0.51;92.62
72061;BME280;59925;52.136;5.420;2023-02-24T05:14:17;101411.44;;;0.53;92.71
72061;BME280;59925;52.136;5.420;2023-02-24T05:16:46;101418.16;;;0.55;92.32
72061;BME280;59925;52.136;5.420;2023-02-24T05:19:15;101410.88;;;0.57;92.48
72061;BME280;59925;52.136;5.420;2023-02-24T05:22:01;101395.66;;;0.59;92.35
72061;BME280;59925;52.136;5.420;2023-02-24T05:24:29;101389.19;;;0.62;92.27
72061;BME280;59925;52.136;5.420;2023-02-24T05:26:56;101380.44;;;0.61;92.00
72061;BME280;59925;52.136;5.420;2023-02-24T05:29:32;101376.78;;;0.63;92.00
72061;BME280;59925;52.136;5.420;2023-02-24T05:31:59;101375.78;;;0.64;92.01
72061;BME280;59925;52.136;5.420;2023-02-24T05:34:27;101372.97;;;0.65;91.98
72061;BME280;59925;52.136;5.420;2023-02-24T05:36:57;101371.97;;;0.66;91.75
72061;BME280;59925;52.136;5.420;2023-02-24T05:39:24;101364.84;;;0.67;91.55
72061;BME280;59925;52.136;5.420;2023-02-24T05:41:54;101355.94;;;0.68;91.53
72061;BME280;59925;52.136;5.420;2023-02-24T05:44:24;101355.72;;;0.69;91.65
72061;BME280;59925;52.136;5.420;2023-02-24T05:46:53;101347.00;;;0.69;91.56
72061;BME280;59925;52.136;5.420;2023-02-24T05:49:28;101341.53;;;0.70;91.35
72061;BME280;59925;52.136;5.420;2023-02-24T05:52:03;101329.97;;;0.71;91.16
72061;BME280;59925;52.136;5.420;2023-02-24T05:54:37;101333.03;;;0.75;91.45
72061;BME280;59925;52.136;5.420;2023-02-24T05:57:09;101330.22;;;0.76;91.26
72061;BME280;59925;52.136;5.420;2023-02-24T05:59:41;101316.63;;;0.80;91.19
72061;BME280;59925;52.136;5.420;2023-02-24T06:02:10;101310.16;;;0.82;91.19
72061;BME280;59925;52.136;5.420;2023-02-24T06:04:40;101302.03;;;0.84;91.08
72061;BME280;59925;52.136;5.420;2023-02-24T06:09:49;101302.47;;;0.87;90.81
72061;BME280;59925;52.136;5.420;2023-02-24T06:12:17;101293.38;;;0.90;91.05
72061;BME280;59925;52.136;5.420;2023-02-24T06:14:44;101290.31;;;0.93;91.12
72061;BME280;59925;52.136;5.420;2023-02-24T06:17:11;101282.00;;;0.96;90.84
72061;BME280;59925;52.136;5.420;2023-02-24T06:19:40;101288.53;;;1.00;90.74
72061;BME280;59925;52.136;5.420;2023-02-24T06:22:08;101289.16;;;1.02;90.83
72061;BME280;59925;52.136;5.420;2023-02-24T06:24:37;101287.75;;;1.06;90.38
72061;BME280;59925;52.136;5.420;2023-02-24T06:27:04;101285.72;;;1.09;90.55
72061;BME280;59925;52.136;5.420;2023-02-24T06:29:53;101290.63;;;1.12;90.46
72061;BME280;59925;52.136;5.420;2023-02-24T06:32:23;101278.84;;;1.14;90.18
72061;BME280;59925;52.136;5.420;2023-02-24T06:34:50;101278.69;;;1.16;90.47
72061;BME280;59925;52.136;5.420;2023-02-24T06:37:17;101271.38;;;1.18;90.78
72061;BME280;59925;52.136;5.420;2023-02-24T06:39:43;101281.34;;;1.22;90.71
72061;BME280;59925;52.136;5.420;2023-02-24T06:42:11;101264.28;;;1.25;90.57
72061;BME280;59925;52.136;5.420;2023-02-24T06:44:38;101269.19;;;1.28;90.27
72061;BME280;59925;52.136;5.420;2023-02-24T06:47:07;101257.22;;;1.32;89.88
72061;BME280;59925;52.136;5.420;2023-02-24T06:49:33;101256.81;;;1.35;89.97
72061;BME280;59925;52.136;5.420;2023-02-24T06:52:00;101243.22;;;1.38;90.44
72061;BME280;59925;52.136;5.420;2023-02-24T06:54:27;101244.63;;;1.41;89.71
72061;BME280;59925;52.136;5.420;2023-02-24T06:56:57;101243.03;;;1.47;89.70
72061;BME280;59925;52.136;5.420;2023-02-24T06:59:24;101241.63;;;1.51;89.36
72061;BME280;59925;52.136;5.420;2023-02-24T07:01:55;101246.50;;;1.54;89.22
72061;BME280;59925;52.136;5.420;2023-02-24T07:04:22;101247.94;;;1.57;89.21
72061;BME280;59925;52.136;5.420;2023-02-24T07:06:56;101230.06;;;1.59;89.38
72061;BME280;59925;52.136;5.420;2023-02-24T07:09:24;101216.44;;;1.62;89.32
72061;BME280;59925;52.136;5.420;2023-02-24T07:11:53;101216.06;;;1.65;89.69
72061;BME280;59925;52.136;5.420;2023-02-24T07:14:23;101212.19;;;1.67;89.39
72061;BME280;59925;52.136;5.420;2023-02-24T07:16:50;101216.66;;;1.74;89.00
72061;BME280;59925;52.136;5.420;2023-02-24T07:19:25;101215.25;;;1.78;88.91
72061;BME280;59925;52.136;5.420;2023-02-24T07:21:56;101217.69;;;1.79;89.42
72061;BME280;59925;52.136;5.420;2023-02-24T07:24:28;101213.63;;;1.83;89.04
72061;BME280;59925;52.136;5.420;2023-02-24T07:29:34;101210.81;;;1.92;89.55
72061;BME280;59925;52.136;5.420;2023-02-24T07:32:03;101205.94;;;1.95;88.77
72061;BME280;59925;52.136;5.420;2023-02-24T07:34:31;101208.75;;;2.01;89.28
72061;BME280;59925;52.136;5.420;2023-02-24T07:36:58;101201.25;;;2.04;89.17
72061;BME280;59925;52.136;5.420;2023-02-24T07:39:28;101194.72;;;2.07;89.33
72061;BME280;59925;52.136;5.420;2023-02-24T07:41:54;101193.31;;;2.11;89.35
72061;BME280;59925;52.136;5.420;2023-02-24T07:44:21;101186.59;;;2.15;88.94
72061;BME280;59925;52.136;5.420;2023-02-24T07:46:50;101181.91;;;2.17;89.48
72061;BME280;59925;52.136;5.420;2023-02-24T07:49:21;101178.84;;;2.20;89.55
72061;BME280;59925;52.136;5.420;2023-02-24T07:51:52;101183.53;;;2.25;89.08
72061;BME280;59925;52.136;5.420;2023-02-24T07:54:21;101174.16;;;2.29;88.74
72061;BME280;59925;52.136;5.420;2023-02-24T07:56:49;101178.00;;;2.33;89.05
72061;BME280;59925;52.136;5.420;2023-02-24T07:59:24;101174.97;;;2.36;89.50
72061;BME280;59925;52.136;5.420;2023-02-24T08:01:51;101180.66;;;2.40;89.77
72061;BME280;59925;52.136;5.420;2023-02-24T08:04:26;101168.03;;;2.42;89.16
72061;BME280;59925;52.136;5.420;2023-02-24T08:06:53;101174.53;;;2.46;89.40
72061;BME280;59925;52.136;5.420;2023-02-24T08:09:26;101166.19;;;2.49;89.88
72061;BME280;59925;52.136;5.420;2023-02-24T08:12:18;101171.88;;;2.53;89.30
72061;BME280;59925;52.136;5.420;2023-02-24T08:14:52;101169.63;;;2.56;90.13
72061;BME280;59925;52.136;5.420;2023-02-24T08:17:22;101158.41;;;2.61;89.96
72061;BME280;59925;52.136;5.420;2023-02-24T08:19:50;101158.22;;;2.63;89.99
72061;BME280;59925;52.136;5.420;2023-02-24T08:22:41;101157.38;;;2.69;90.48
72061;BME280;59925;52.136;5.420;2023-02-24T08:25:14;101156.56;;;2.75;90.14
72061;BME280;59925;52.136;5.420;2023-02-24T08:27:46;101144.50;;;2.79;90.47
72061;BME280;59925;52.136;5.420;2023-02-24T08:30:34;101133.88;;;2.86;90.48
72061;BME280;59925;52.136;5.420;2023-02-24T08:33:06;101145.06;;;2.95;90.91
72061;BME280;59925;52.136;5.420;2023-02-24T08:35:36;101141.59;;;3.01;90.57
72061;BME280;59925;52.136;5.420;2023-02-24T08:38:19;101128.72;;;3.04;90.84
72061;BME280;59925;52.136;5.420;2023-02-24T08:40:49;101122.59;;;3.11;90.95
72061;BME280;59925;52.136;5.420;2023-02-24T08:43:23;101124.59;;;3.15;91.00
72061;BME280;59925;52.136;5.420;2023-02-24T08:48:51;101120.28;;;3.21;91.07
72061;BME280;59925;52.136;5.420;2023-02-24T08:51:25;101123.72;;;3.21;91.19
72061;BME280;59925;52.136;5.420;2023-02-24T08:53:56;101120.06;;;3.22;91.19
72061;BME280;59925;52.136;5.420;2023-02-24T08:56:29;101117.22;;;3.24;91.13
72061;BME280;59925;52.136;5.420;2023-02-24T08:58:57;101107.19;;;3.26;91.18
72061;BME280;59925;52.136;5.420;2023-02-24T09:01:37;101103.31;;;3.29;90.89
72061;BME280;59925;52.136;5.420;2023-02-24T09:04:10;101093.88;;;3.33;91.52
72061;BME280;59925;52.136;5.420;2023-02-24T09:06:41;101093.06;;;3.39;91.43
72061;BME280;59925;52.136;5.420;2023-02-24T09:09:13;101090.34;;;3.46;91.28
72061;BME280;59925;52.136;5.420;2023-02-24T09:12:01;101074.16;;;3.54;91.34
72061;BME280;59925;52.136;5.420;2023-02-24T09:14:29;101069.84;;;3.60;91.33
72061;BME280;59925;52.136;5.420;2023-02-24T09:17:06;101068.97;;;3.66;91.41
72061;BME280;59925;52.136;5.420;2023-02-24T09:19:41;101064.66;;;3.72;91.21
72061;BME280;59925;52.136;5.420;2023-02-24T09:22:20;101051.31;;;3.78;92.06
72061;BME280;59925;52.136;5.420;2023-02-24T09:25:12;101046.50;;;3.94;91.33
72061;BME280;59925;52.136;5.420;2023-02-24T09:27:54;101048.25;;;4.00;91.72
72061;BME280;59925;52.136;5.420;2023-02-24T09:30:25;101033.97;;;4.01;91.35
72061;BME280;59925;52.136;5.420;2023-02-24T09:33:16;101029.59;;;4.07;91.75
72061;BME280;59925;52.136;5.420;2023-02-24T09:35:45;101029.97;;;4.10;91.81
72061;BME280;59925;52.136;5.420;2023-02-24T09:38:13;101029.69;;;4.19;92.11
72061;BME280;59925;52.136;5.420;2023-02-24T09:40:45;101021.22;;;4.28;92.18
72061;BME280;59925;52.136;5.420;2023-02-24T09:46:05;101017.94;;;4.45;92.62
72061;BME280;59925;52.136;5.420;2023-02-24T09:49:04;101022.00;;;4.48;93.18
72061;BME280;59925;52.136;5.420;2023-02-24T09:51:32;101007.69;;;4.49;92.86
72061;BME280;59925;52.136;5.420;2023-02-24T09:54:19;101021.19;;;4.47;93.08
72061;BME280;59925;52.136;5.420;2023-02-24T09:56:59;101011.97;;;4.50;93.17
72061;BME280;59925;52.136;5.420;2023-02-24T09:59:56;101004.38;;;4.53;93.81
72061;BME280;59925;52.136;5.420;2023-02-24T10:03:41;101002.22;;;4.62;93.87
72061;BME280;59925;52.136;5.420;2023-02-24T10:06:23;100998.03;;;4.66;93.86
72061;BME280;59925;52.136;5.420;2023-02-24T10:08:59;100997.84;;;4.68;94.51
72061;BME280;59925;52.136;5.420;2023-02-24T10:11:41;100998.38;;;4.58;94.71
72061;BME280;59925;52.136;5.420;2023-02-24T10:14:48;100993.41;;;4.62;94.69
72061;BME280;59925;52.136;5.420;2023-02-24T10:17:27;101001.53;;;4.67;94.98
72061;BME280;59925;52.136;5.420;2023-02-24T10:20:16;100991.69;;;4.67;95.04
72061;BME280;59925;52.136;5.420;2023-02-24T10:23:06;100988.47;;;4.65;95.30
72061;BME280;59925;52.136;5.420;2023-02-24T10:28:46;100979.69;;;4.65;95.61
72061;BME280;59925;52.136;5.420;2023-02-24T10:31:26;100975.41;;;4.64;95.99
72061;BME280;59925;52.136;5.420;2023-02-24T10:33:59;100969.06;;;4.65;95.56
72061;BME280;59925;52.136;5.420;2023-02-24T10:36:29;100968.63;;;4.68;96.09
72061;BME280;59925;52.136;5.420;2023-02-24T10:39:14;100968.16;;;4.71;96.27
72061;BME280;59925;52.136;5.420;2023-02-24T10:41:48;100965.63;;;4.76;96.26
72061;BME280;59925;52.136;5.420;2023-02-24T10:44:25;100964.38;;;4.79;96.67
72061;BME280;59925;52.136;5.420;2023-02-24T10:47:09;100961.25;;;4.82;96.52
72061;BME280;59925;52.136;5.420;2023-02-24T10:49:40;100945.78;;;4.79;96.50
72061;BME280;59925;52.136;5.420;2023-02-24T10:52:12;100956.19;;;4.80;96.95
72061;BME280;59925;52.136;5.420;2023-02-24T10:54:58;100939.66;;;4.90;97.00
72061;BME280;59925;52.136;5.420;2023-02-24T10:57:42;100944.09;;;4.96;97.20
72061;BME280;59925;52.136;5.420;2023-02-24T11:00:24;100930.78;;;4.96;97.38
72061;BME280;59925;52.136;5.420;2023-02-24T11:03:17;100937.16;;;4.95;97.18
72061;BME280;59925;52.136;5.420;2023-02-24T11:06:02;100938.91;;;5.01;97.03
72061;BME280;59925;52.136;5.420;2023-02-24T11:08:35;100926.75;;;5.05;97.41
72061;BME280;59925;52.136;5.420;2023-02-24T11:11:14;100927.00;;;5.04;97.69
72061;BME280;59925;52.136;5.420;2023-02-24T11:13:51;100924.69;;;5.07;97.89
72061;BME280;59925;52.136;5.420;2023-02-24T11:16:43;100921.44;;;5.05;97.73
72061;BME280;59925;52.136;5.420;2023-02-24T11:19:30;100922.59;;;5.10;97.62
72061;BME280;59925;52.136;5.420;2023-02-24T11:21:58;100909.66;;;5.13;98.02
72061;BME280;59925;52.136;5.420;2023-02-24T11:24:27;100915.91;;;5.19;98.07
72061;BME280;59925;52.136;5.420;2023-02-24T11:26:54;100901.78;;;5.30;98.01
72061;BME280;59925;52.136;5.420;2023-02-24T11:32:31;100905.81;;;5.45;98.24
72061;BME280;59925;52.136;5.420;2023-02-24T11:35:24;100899.59;;;5.51;98.29
72061;BME280;59925;52.136;5.420;2023-02-24T11:38:02;100897.84;;;5.57;98.09
72061;BME280;59925;52.136;5.420;2023-02-24T11:40:40;100895.63;;;5.65;98.49
72061;BME280;59925;52.136;5.420;2023-02-24T11:43:19;100888.78;;;5.70;98.49
72061;BME280;59925;52.136;5.420;2023-02-24T11:45:52;100894.69;;;5.72;98.68
72061;BME280;59925;52.136;5.420;2023-02-24T11:48:30;100884.63;;;5.74;98.77
72061;BME280;59925;52.136;5.420;2023-02-24T11:51:14;100886.00;;;5.76;98.72
72061;BME280;59925;52.136;5.420;2023-02-24T11:54:03;100880.91;;;5.75;98.56
72061;BME280;59925;52.136;5.420;2023-02-24T11:56:41;100874.09;;;5.79;98.54
72061;BME280;59925;52.136;5.420;2023-02-24T12:01:51;100857.75;;;5.87;98.47
72061;BME280;59925;52.136;5.420;2023-02-24T12:04:57;100852.06;;;5.95;98.67
72061;BME280;59925;52.136;5.420;2023-02-24T12:07:31;100856.88;;;6.10;98.93
72061;BME280;59925;52.136;5.420;2023-02-24T12:13:05;100841.19;;;6.43;98.44
72061;BME280;59925;52.136;5.420;2023-02-24T12:15:48;100847.78;;;6.74;98.11
72061;BME280;59925;52.136;5.420;2023-02-24T12:18:26;100849.38;;;6.93;97.98
72061;BME280;59925;52.136;5.420;2023-02-24T12:23:38;100836.38;;;7.13;97.38
72061;BME280;59925;52.136;5.420;2023-02-24T12:26:25;100837.25;;;7.02;96.43
72061;BME280;59925;52.136;5.420;2023-02-24T12:32:08;100824.97;;;7.40;96.46
72061;BME280;59925;52.136;5.420;2023-02-24T12:35:02;100798.09;;;7.96;96.04
72061;BME280;59925;52.136;5.420;2023-02-24T12:51:36;100795.44;;;9.15;90.39
72061;BME280;59925;52.136;5.420;2023-02-24T12:54:39;100803.34;;;8.89;88.76
72061;BME280;59925;52.136;5.420;2023-02-24T12:57:22;100798.16;;;8.72;88.88
72061;BME280;59925;52.136;5.420;2023-02-24T12:59:52;100787.38;;;8.56;88.14
72061;BME280;59925;52.136;5.420;2023-02-24T13:05:06;100784.84;;;8.77;87.51
72061;BME280;59925;52.136;5.420;2023-02-24T13:10:53;100784.38;;;8.48;86.14
72061;BME280;59925;52.136;5.420;2023-02-24T13:15:30;100764.38;;;8.55;84.75
72061;BME280;59925;52.136;5.420;2023-02-24T13:17:57;100761.53;;;8.67;83.71
72061;BME280;59925;52.136;5.420;2023-02-24T13:22:54;100771.03;;;8.96;81.81
72061;BME280;59925;52.136;5.420;2023-02-24T13:25:35;100760.38;;;9.01;81.27
72061;BME280;59925;52.136;5.420;2023-02-24T13:28:21;100744.38;;;9.16;80.47
72061;BME280;59925;52.136;5.420;2023-02-24T13:31:02;100745.22;;;9.27;79.42
72061;BME280;59925;52.136;5.420;2023-02-24T13:36:17;100745.91;;;8.97;78.69
72061;BME280;59925;52.136;5.420;2023-02-24T13:39:05;100748.50;;;8.81;79.18
72061;BME280;59925;52.136;5.420;2023-02-24T13:49:38;100772.81;;;7.55;82.78
72061;BME280;59925;52.136;5.420;2023-02-24T13:52:36;100763.75;;;7.28;83.42
72061;BME280;59925;52.136;5.420;2023-02-24T14:02:47;100752.16;;;7.17;85.03
72061;BME280;59925;52.136;5.420;2023-02-24T14:05:23;100735.41;;;7.22;85.49
72061;BME280;59925;52.136;5.420;2023-02-24T14:07:51;100736.75;;;7.74;85.59
72061;BME280;59925;52.136;5.420;2023-02-24T14:10:20;100735.75;;;8.13;84.97
72061;BME280;59925;52.136;5.420;2023-02-24T14:12:59;100747.41;;;8.39;84.33
72061;BME280;59925;52.136;5.420;2023-02-24T14:15:27;100740.94;;;8.30;84.13
72061;BME280;59925;52.136;5.420;2023-02-24T14:18:02;100744.91;;;8.22;84.20
72061;BME280;59925;52.136;5.420;2023-02-24T14:20:34;100746.25;;;8.25;84.61
72061;BME280;59925;52.136;5.420;2023-02-24T14:23:19;100736.88;;;8.22;84.58
72061;BME280;59925;52.136;5.420;2023-02-24T14:25:46;100739.50;;;8.12;83.97
72061;BME280;59925;52.136;5.420;2023-02-24T14:28:21;100743.34;;;7.94;84.02
72061;BME280;59925;52.136;5.420;2023-02-24T14:30:52;100729.47;;;7.97;83.93
72061;BME280;59925;52.136;5.420;2023-02-24T14:33:25;100724.06;;;7.87;83.36
72061;BME280;59925;52.136;5.420;2023-02-24T14:35:53;100735.19;;;7.78;82.73
72061;BME280;59925;52.136;5.420;2023-02-24T14:38:37;100731.88;;;7.66;81.98
72061;BME280;59925;52.136;5.420;2023-02-24T14:43:44;100734.59;;;7.44;81.96
72061;BME280;59925;52.136;5.420;2023-02-24T14:46:10;100734.72;;;7.32;81.94
72061;BME280;59925;52.136;5.420;2023-02-24T14:48:37;100738.31;;;7.20;81.52
72061;BME280;59925;52.136;5.420;2023-02-24T14:51:15;100726.50;;;7.11;81.37
72061;BME280;59925;52.136;5.420;2023-02-24T14:53:50;100729.56;;;7.03;81.38
72061;BME280;59925;52.136;5.420;2023-02-24T14:56:18;100726.31;;;6.96;81.49
72061;BME280;59925;52.136;5.420;2023-02-24T14:58:50;100733.75;;;6.94;81.68
72061;BME280;59925;52.136;5.420;2023-02-24T15:01:41;100734.31;;;6.96;81.19
72061;BME280;59925;52.136;5.420;2023-02-24T15:04:38;100726.91;;;7.25;81.41
72061;BME280;59925;52.136;5.420;2023-02-24T15:07:34;100740.13;;;8.24;80.62
72061;BME280;59925;52.136;5.420;2023-02-24T15:10:02;100730.19;;;9.11;78.35
72061;BME280;59925;52.136;5.420;2023-02-24T15:12:43;100712.78;;;9.08;75.99
72061;BME280;59925;52.136;5.420;2023-02-24T15:15:25;100727.53;;;8.20;76.71
72061;BME280;59925;52.136;5.420;2023-02-24T15:17:59;100738.09;;;7.77;77.73
72061;BME280;59925;52.136;5.420;2023-02-24T15:20:35;100737.66;;;7.58;78.47
72061;BME280;59925;52.136;5.420;2023-02-24T15:23:03;100732.41;;;7.68;78.59